Data for 12/24/2012

Time Sea-Level Adjusted Pressure Absolute Pressure Temperature Relative Humidity Dew Point   
(mb) (inHg) (mb) (inHg) (C) (F) (%) (C) (F)
00:05 1008 29.77 838 24.75 -0.7 30.8 50 -9.8 14.3
00:10 1008 29.77 838 24.75 -0.7 30.8 51 -9.6 14.7
00:15 1008 29.77 838 24.75 -0.7 30.7 52 -9.4 15
00:20 1008 29.77 838 24.75 -0.7 30.7 52 -9.3 15.2
00:25 1008 29.77 838 24.75 -0.7 30.8 51 -9.5 14.9
00:30 1008 29.77 837 24.72 -0.6 30.9 52 -9.4 15.1
00:35 1008 29.77 837 24.72 -0.6 31 53 -9.1 15.6
00:40 1008 29.77 837 24.72 -0.6 31 53 -9.1 15.6
00:45 1008 29.77 837 24.72 -0.6 30.9 53 -9 15.9
00:50 1008 29.77 837 24.72 -0.6 30.9 53 -9 15.8
00:55 1008 29.77 837 24.72 -0.6 31 54 -8.8 16.1
01:00 1008 29.77 837 24.72 -0.6 30.9 54 -8.8 16.2
01:05 1008 29.77 837 24.72 -0.6 30.9 54 -8.7 16.3
01:10 1008 29.77 837 24.72 -0.7 30.8 55 -8.7 16.3
01:15 1008 29.77 837 24.72 -0.8 30.7 55 -8.7 16.3
01:20 1008 29.77 837 24.72 -0.8 30.6 55 -8.8 16.2
01:25 1008 29.77 837 24.72 -0.8 30.5 55 -8.8 16.2
01:30 1008 29.77 837 24.72 -0.9 30.5 55 -8.9 16
01:35 1008 29.77 837 24.72 -0.9 30.4 55 -8.7 16.3
01:40 1008 29.77 837 24.72 -0.8 30.6 55 -8.8 16.1
01:45 1008 29.77 837 24.72 -0.7 30.7 54 -8.9 16
01:50 1008 29.77 837 24.72 -0.7 30.8 54 -8.9 16
01:55 1008 29.77 837 24.72 -0.7 30.7 55 -8.8 16.2
02:00 1008 29.77 837 24.72 -0.8 30.6 55 -8.8 16.2
02:05 1008 29.77 837 24.72 -0.8 30.5 55 -8.8 16.1
02:10 1008 29.77 837 24.72 -0.8 30.5 54 -9 15.8
02:15 1008 29.77 837 24.72 -0.9 30.4 54 -9 15.8
02:20 1008 29.77 837 24.72 -1 30.3 54 -9 15.8
02:25 1008 29.77 837 24.72 -1 30.2 55 -9 15.9
02:30 1008 29.77 837 24.72 -1.1 30.1 54 -9.1 15.6
02:35 1008 29.77 837 24.72 -1.1 30 55 -9.1 15.6
02:40 1008 29.77 837 24.72 -1.1 30 55 -9.1 15.5
02:45 1008 29.77 837 24.72 -1.2 29.8 55 -9.1 15.5
02:50 1008 29.77 837 24.72 -1.3 29.7 55 -9.1 15.5
02:55 1008 29.77 837 24.72 -1.3 29.7 55 -9.2 15.5
03:00 1008 29.77 837 24.72 -1.2 29.8 55 -9.2 15.5
03:05 1008 29.77 837 24.72 -1.1 30 55 -9.1 15.7
03:10 1008 29.77 837 24.72 -1.1 30 55 -9.1 15.6
03:15 1008 29.77 837 24.72 -1.2 29.8 55 -9.1 15.7
03:20 1008 29.77 837 24.72 -1.2 29.9 55 -9 15.8
03:25 1008 29.77 837 24.72 -1.2 29.9 55 -9 15.8
03:30 1008 29.77 837 24.72 -1.3 29.6 56 -9 15.9
03:35 1008 29.77 837 24.72 -1.5 29.3 56 -9.1 15.7
03:40 1008 29.77 837 24.72 -1.7 29 57 -9.1 15.6
03:45 1008 29.77 837 24.72 -1.8 28.7 58 -9.1 15.7
03:50 1008 29.77 837 24.72 -2.1 28.3 59 -9.1 15.5
03:55 1008 29.77 837 24.72 -2.2 28 59 -9.2 15.4
04:00 1008 29.77 837 24.72 -2.3 27.8 59 -9.3 15.3
04:05 1008 29.77 837 24.72 -2.3 27.8 59 -9.2 15.4
04:10 1008 29.77 837 24.72 -2.4 27.7 59 -9.3 15.3
04:15 1008 29.77 837 24.72 -2.4 27.7 59 -9.3 15.2
04:20 1008 29.77 837 24.72 -2.4 27.6 59 -9.3 15.3
04:25 1008 29.77 837 24.72 -2.5 27.4 60 -9.2 15.4
04:30 1008 29.77 837 24.72 -2.7 27.1 61 -9.3 15.2
04:35 1008 29.77 837 24.72 -3 26.6 61 -9.4 15.1
04:40 1008 29.77 837 24.72 -3.1 26.5 61 -9.5 14.9
04:45 1008 29.77 837 24.72 -3 26.5 61 -9.5 14.9
04:50 1008 29.77 837 24.72 -3 26.5 61 -9.4 15
04:55 1008 29.77 837 24.72 -3.1 26.5 62 -9.4 15.1
05:00 1008 29.77 837 24.72 -3.2 26.3 62 -9.4 15.1
05:05 1008 29.77 837 24.72 -3.3 26.1 62 -9.5 14.9
05:10 1008 29.77 837 24.72 -3.4 25.9 63 -9.6 14.8
05:15 1008 29.77 837 24.72 -3.6 25.6 64 -9.5 14.9
05:20 1008 29.77 837 24.72 -3.7 25.4 64 -9.6 14.8
05:25 1008 29.77 837 24.72 -3.7 25.4 64 -9.6 14.8
05:30 1008 29.77 837 24.72 -3.6 25.4 64 -9.5 14.9
05:35 1008 29.77 837 24.72 -3.7 25.4 65 -9.4 15.1
05:40 1008 29.77 837 24.72 -3.6 25.4 64 -9.4 15.1
05:45 1008 29.77 837 24.72 -3.6 25.5 64 -9.4 15.1
05:50 1008 29.77 838 24.75 -3.6 25.5 65 -9.3 15.3
05:55 1008 29.77 838 24.75 -3.7 25.4 66 -9.2 15.4
06:00 1008 29.77 838 24.75 -3.7 25.4 66 -9.1 15.6
06:05 1008 29.77 838 24.75 -3.7 25.3 65 -9.3 15.3
06:10 1008 29.77 838 24.75 -3.8 25.2 66 -9.3 15.3
06:15 1008 29.77 838 24.75 -4 24.8 66 -9.5 14.9
06:20 1008 29.77 838 24.75 -4.2 24.4 67 -9.5 14.8
06:25 1008 29.77 838 24.75 -4.4 24.2 68 -9.5 14.9
06:30 1008 29.77 838 24.75 -4.4 24.1 67 -9.6 14.7
06:35 1009 29.8 838 24.75 -4.5 24 68 -9.5 14.8
06:40 1009 29.8 838 24.75 -4.5 23.9 68 -9.4 15
06:45 1009 29.8 838 24.75 -4.5 24 68 -9.5 14.8
06:50 1009 29.8 838 24.75 -4.4 24.1 67 -9.6 14.7
06:55 1009 29.8 838 24.75 -4.3 24.2 68 -9.5 15
07:00 1009 29.8 838 24.75 -4.3 24.2 67 -9.5 15
07:05 1009 29.8 838 24.75 -4.4 24.1 68 -9.5 15
07:10 1009 29.8 838 24.75 -4.5 24 68 -9.5 14.9
07:15 1009 29.8 838 24.75 -4.6 23.7 68 -9.6 14.7
07:20 1009 29.8 838 24.75 -4.9 23.2 69 -9.7 14.6
07:25 1009 29.8 838 24.75 -5.2 22.7 70 -9.8 14.3
07:30 1009 29.8 838 24.75 -5.4 22.3 71 -9.8 14.4
07:35 1009 29.8 838 24.75 -5.5 22.1 72 -9.9 14.2
07:40 1009 29.8 839 24.78 -5.6 21.9 71 -10.1 13.9
07:45 1009 29.8 839 24.78 -5.8 21.6 72 -10.1 13.9
07:50 1009 29.8 839 24.78 -5.8 21.5 72 -10.1 13.8
07:55 1009 29.8 839 24.78 -5.9 21.5 73 -10 14
08:00 1009 29.8 839 24.78 -5.8 21.5 73 -9.9 14.2
08:05 1009 29.8 839 24.78 -5.7 21.8 77 -9.1 15.6
08:10 1010 29.83 839 24.78 -5.9 21.4 80 -8.8 16.2
08:15 1010 29.83 839 24.78 -6.2 20.8 82 -8.8 16.1
08:20 1010 29.83 839 24.78 -6.7 20 83 -9 15.7
08:25 1010 29.83 839 24.78 -7.1 19.2 86 -9.1 15.6
08:30 1010 29.83 839 24.78 -7.1 19.3 85 -9.2 15.4
08:35 1010 29.83 839 24.78 -7.4 18.7 87 -9.2 15.4
08:40 1010 29.83 839 24.78 -7.5 18.6 80 -10.4 13.3
08:45 1010 29.83 839 24.78 -7.4 18.7 79 -10.5 13.1
08:50 1010 29.83 839 24.78 -7.4 18.6 75 -11.1 12.1
08:55 1010 29.83 839 24.78 -7.5 18.4 75 -11.2 11.8
09:00 1010 29.83 839 24.78 -7.6 18.3 74 -11.4 11.5
09:05 1010 29.83 839 24.78 -7.9 17.8 74 -11.8 10.8
09:10 1010 29.83 839 24.78 -8.2 17.3 74 -12 10.3
09:15 1010 29.83 839 24.78 -8.3 17 74 -12.2 10
09:20 1010 29.83 839 24.78 -8.5 16.8 74 -12.4 9.7
09:25 1010 29.83 840 24.81 -8.6 16.6 73 -12.6 9.3
09:30 1011 29.85 840 24.81 -8.7 16.4 73 -12.7 9.1
09:35 1011 29.85 840 24.81 -8.7 16.4 72 -12.8 9
09:40 1011 29.85 840 24.81 -8.7 16.4 72 -12.9 8.8
09:45 1011 29.85 840 24.81 -8.8 16.2 72 -13 8.7
09:50 1011 29.85 840 24.81 -8.9 16 81 -11.6 11.1
09:55 1011 29.85 840 24.81 -9.3 15.2 86 -11.2 11.8
10:00 1011 29.85 840 24.81 -9.7 14.6 87 -11.4 11.4
10:05 1011 29.85 840 24.81 -9.8 14.3 87 -11.6 11.2
10:10 1011 29.85 840 24.81 -10 14.1 86 -11.9 10.6
10:15 1011 29.85 840 24.81 -9.7 14.5 83 -12 10.3
10:20 1011 29.85 841 24.83 -9.5 14.8 82 -12 10.3
10:25 1011 29.85 841 24.83 -9.4 15 81 -12.1 10.2
10:30 1012 29.88 841 24.83 -9.5 15 79 -12.4 9.7
10:35 1012 29.88 841 24.83 -9.4 15.1 77 -12.6 9.3
10:40 1012 29.88 841 24.83 -9.2 15.4 71 -13.6 7.6
10:45 1012 29.88 841 24.83 -9.2 15.5 69 -13.9 7
10:50 1012 29.88 841 24.83 -9.3 15.3 67 -14.3 6.3
10:55 1012 29.88 841 24.83 -9.6 14.8 67 -14.6 5.7
11:00 1012 29.88 841 24.83 -9.8 14.3 68 -14.6 5.7
11:05 1012 29.88 841 24.83 -9.9 14.2 69 -14.6 5.7
11:10 1012 29.88 841 24.83 -10 14 69 -14.6 5.7
11:15 1012 29.88 841 24.83 -10 14 69 -14.6 5.7
11:20 1012 29.88 841 24.83 -10 14.1 70 -14.5 5.9
11:25 1012 29.88 841 24.83 -10.1 13.8 70 -14.6 5.7
11:30 1012 29.88 841 24.83 -10.1 13.8 69 -14.8 5.4
11:35 1012 29.88 842 24.86 -10.2 13.7 70 -14.7 5.5
11:40 1012 29.88 842 24.86 -10 14 69 -14.6 5.7
11:45 1013 29.91 842 24.86 -9.8 14.4 72 -13.9 6.9
11:50 1013 29.91 842 24.86 -10.1 13.8 82 -12.6 9.3
11:55 1013 29.91 842 24.86 -10 14.1 80 -12.9 8.9
12:00 1013 29.91 842 24.86 -10 14.1 80 -12.9 8.8
12:05 1013 29.91 842 24.86 -10.2 13.7 81 -12.9 8.8
12:10 1013 29.91 842 24.86 -10.4 13.4 81 -13 8.6
12:15 1013 29.91 842 24.86 -10.4 13.2 81 -13 8.5
12:20 1013 29.91 842 24.86 -10.2 13.6 82 -12.7 9.1
12:25 1013 29.91 842 24.86 -10.5 13.1 85 -12.6 9.3
12:30 1013 29.91 842 24.86 -10.3 13.5 81 -12.9 8.8
12:35 1013 29.91 842 24.86 -10.2 13.7 82 -12.7 9.2
12:40 1013 29.91 842 24.86 -10 13.9 81 -12.6 9.3
12:45 1013 29.91 842 24.86 -10 13.9 80 -12.9 8.8
12:50 1013 29.91 842 24.86 -10.4 13.2 82 -13 8.6
12:55 1013 29.91 843 24.89 -10.6 12.9 82 -13.1 8.4
13:00 1013 29.91 843 24.89 -10.7 12.8 81 -13.3 8
13:05 1013 29.91 843 24.89 -10.8 12.6 82 -13.3 8.1
13:10 1013 29.91 843 24.89 -10.8 12.5 82 -13.4 8
13:15 1013 29.91 843 24.89 -10.8 12.6 81 -13.4 7.9
13:20 1014 29.94 843 24.89 -10.7 12.8 81 -13.4 7.9
13:25 1014 29.94 843 24.89 -10.9 12.4 80 -13.6 7.4
13:30 1014 29.94 843 24.89 -11 12.1 81 -13.6 7.5
13:35 1014 29.94 843 24.89 -10.9 12.4 80 -13.8 7.2
13:40 1014 29.94 843 24.89 -11 12.2 80 -13.8 7.1
13:45 1014 29.94 843 24.89 -11.1 12 80 -13.9 7
13:50 1014 29.94 843 24.89 -11.1 12.1 81 -13.8 7.2
13:55 1014 29.94 843 24.89 -11 12.2 81 -13.6 7.5
14:00 1014 29.94 843 24.89 -10.9 12.4 80 -13.7 7.3
14:05 1014 29.94 843 24.89 -10.9 12.3 79 -13.9 7
14:10 1014 29.94 843 24.89 -11 12.2 79 -13.9 7
14:15 1014 29.94 843 24.89 -11.2 11.8 80 -14.1 6.7
14:20 1014 29.94 844 24.92 -11 12.1 77 -14.3 6.3
14:25 1015 29.97 844 24.92 -11.1 12.1 77 -14.3 6.2
14:30 1015 29.97 844 24.92 -11.3 11.6 78 -14.4 6.1
14:35 1015 29.97 844 24.92 -11.3 11.7 78 -14.4 6
14:40 1015 29.97 844 24.92 -11.4 11.6 78 -14.5 5.9
14:45 1015 29.97 844 24.92 -11.7 10.9 79 -14.7 5.6
14:50 1015 29.97 844 24.92 -12.3 9.9 81 -14.9 5.1
14:55 1015 29.97 844 24.92 -12.4 9.8 82 -14.8 5.4
15:00 1015 29.97 844 24.92 -12.1 10.2 81 -14.8 5.4
15:05 1015 29.97 844 24.92 -12.3 9.8 82 -14.8 5.3
15:10 1015 29.97 844 24.92 -12.2 10.1 81 -14.7 5.5
15:15 1015 29.97 844 24.92 -11.9 10.6 81 -14.5 5.8
15:20 1015 29.97 844 24.92 -11.8 10.8 82 -14.3 6.3
15:25 1015 29.97 844 24.92 -11.5 11.3 81 -14.2 6.4
15:30 1015 29.97 844 24.92 -11.4 11.4 81 -14.1 6.6
15:35 1015 29.97 844 24.92 -11.3 11.7 81 -13.9 6.9
15:40 1015 29.97 844 24.92 -11.1 12 80 -13.9 6.9
15:45 1015 29.97 845 24.95 -11.2 11.9 79 -14.1 6.6
15:50 1016 30 845 24.95 -11.2 11.9 79 -14.1 6.7
15:55 1016 30 845 24.95 -11.2 11.9 79 -14.2 6.5
16:00 1016 30 845 24.95 -11.6 11.1 82 -14.1 6.6
16:05 1016 30 845 24.95 -11.8 10.8 81 -14.4 6.1
16:10 1016 30 845 24.95 -11.8 10.8 80 -14.6 5.7
16:15 1016 30 845 24.95 -12 10.4 79 -14.9 5.2
16:20 1016 30 845 24.95 -12.2 10.1 80 -15 5
16:25 1016 30 845 24.95 -12.3 9.8 80 -15.1 4.9
16:30 1016 30 846 24.98 -12.4 9.7 80 -15.2 4.7
16:35 1016 30 846 24.98 -12.6 9.4 80 -15.3 4.5
16:40 1016 30 846 24.98 -12.7 9.2 81 -15.4 4.3
16:45 1017 30.03 846 24.98 -12.7 9.1 81 -15.4 4.3
16:50 1017 30.03 846 24.98 -12.8 9 81 -15.4 4.2
16:55 1017 30.03 846 24.98 -12.9 8.8 81 -15.5 4.1
17:00 1017 30.03 846 24.98 -12.9 8.8 82 -15.3 4.4
17:05 1017 30.03 846 24.98 -12.9 8.9 82 -15.3 4.4
17:10 1017 30.03 846 24.98 -13 8.7 83 -15.3 4.4
17:15 1017 30.03 846 24.98 -13 8.5 81 -15.6 3.9
17:20 1017 30.03 846 24.98 -13.2 8.3 80 -15.9 3.4
17:25 1017 30.03 846 24.98 -13.2 8.2 81 -15.8 3.5
17:30 1017 30.03 846 24.98 -13.3 8 82 -15.7 3.7
17:35 1017 30.03 847 25.01 -13.3 8.1 82 -15.7 3.7
17:40 1017 30.03 847 25.01 -13.3 8 83 -15.7 3.7
17:45 1017 30.03 847 25.01 -13.3 8 82 -15.8 3.5
17:50 1018 30.06 847 25.01 -13.5 7.8 84 -15.7 3.8
17:55 1018 30.06 847 25.01 -13.4 7.9 82 -15.8 3.5
18:00 1018 30.06 847 25.01 -13.4 7.9 82 -15.8 3.5
18:05 1018 30.06 847 25.01 -13.5 7.7 83 -15.8 3.5
18:10 1018 30.06 847 25.01 -13.5 7.6 84 -15.8 3.6
18:15 1018 30.06 847 25.01 -13.4 7.8 82 -16 3.3
18:20 1018 30.06 847 25.01 -13.5 7.8 83 -15.8 3.5
18:25 1018 30.06 847 25.01 -13.6 7.6 83 -15.9 3.4
18:30 1018 30.06 847 25.01 -13.7 7.4 84 -15.9 3.4
18:35 1018 30.06 847 25.01 -13.7 7.3 84 -15.9 3.3
18:40 1018 30.06 847 25.01 -13.7 7.3 83 -16 3.1
18:45 1018 30.06 848 25.04 -13.7 7.4 82 -16.1 3
18:50 1018 30.06 848 25.04 -13.8 7.2 82 -16.1 2.9
18:55 1018 30.06 848 25.04 -13.8 7.2 82 -16.2 2.8
19:00 1019 30.09 848 25.04 -13.8 7.1 83 -16.1 2.9
19:05 1019 30.09 848 25.04 -13.8 7.1 83 -16.2 2.9
19:10 1019 30.09 848 25.04 -13.8 7.2 83 -16.2 2.9
19:15 1019 30.09 848 25.04 -13.8 7.1 83 -16.1 2.9
19:20 1019 30.09 848 25.04 -13.8 7.1 83 -16.2 2.9
19:25 1019 30.09 848 25.04 -13.8 7.1 83 -16.1 3
19:30 1019 30.09 848 25.04 -13.8 7.2 83 -16 3.1
19:35 1019 30.09 848 25.04 -13.8 7.1 84 -16.1 3.1
19:40 1019 30.09 848 25.04 -13.8 7.1 83 -16.1 3.1
19:45 1019 30.09 848 25.04 -14 6.8 85 -16.1 3.1
19:50 1019 30.09 849 25.07 -14.1 6.7 85 -16 3.2
19:55 1019 30.09 849 25.07 -14 6.8 84 -16.1 3
20:00 1019 30.09 849 25.07 -14.2 6.4 86 -16.1 3.1
20:05 1019 30.09 849 25.07 -14 6.8 85 -16.1 3.1
20:10 1019 30.09 849 25.07 -13.9 7.1 83 -16.1 3
20:15 1019 30.09 849 25.07 -13.9 7.1 83 -16.2 2.8
20:20 1019 30.09 849 25.07 -13.9 7 83 -16.2 2.9
20:25 1020 30.12 849 25.07 -13.9 7.1 83 -16.2 2.9
20:30 1020 30.12 849 25.07 -13.8 7.1 82 -16.2 2.9
20:35 1020 30.12 849 25.07 -13.9 7 83 -16.2 2.8
20:40 1020 30.12 849 25.07 -13.9 6.9 83 -16.3 2.7
20:45 1020 30.12 849 25.07 -14 6.9 82 -16.3 2.6
20:50 1020 30.12 849 25.07 -14 6.9 82 -16.3 2.6
20:55 1020 30.12 849 25.07 -14 6.9 83 -16.3 2.7
21:00 1020 30.12 849 25.07 -13.9 7 82 -16.3 2.6
21:05 1020 30.12 849 25.07 -13.9 6.9 80 -16.7 2
21:10 1020 30.12 849 25.07 -14 6.7 80 -16.8 1.8
21:15 1020 30.12 849 25.07 -14.1 6.6 80 -16.8 1.8
21:20 1020 30.12 849 25.07 -14.2 6.5 81 -16.8 1.8
21:25 1020 30.12 849 25.07 -14.2 6.4 82 -16.7 2
21:30 1020 30.12 849 25.07 -14.2 6.4 82 -16.6 2.1
21:35 1020 30.12 849 25.07 -14.3 6.4 83 -16.6 2.2
21:40 1020 30.12 849 25.07 -14.2 6.5 83 -16.5 2.3
21:45 1020 30.12 849 25.07 -14.2 6.4 83 -16.5 2.4
21:50 1020 30.12 849 25.07 -14.2 6.4 83 -16.5 2.3
21:55 1020 30.12 849 25.07 -14.2 6.4 83 -16.5 2.3
22:00 1020 30.12 849 25.07 -14.2 6.5 83 -16.5 2.4
22:05 1020 30.12 849 25.07 -14.3 6.3 84 -16.5 2.4
22:10 1020 30.12 849 25.07 -14.3 6.4 84 -16.4 2.4
22:15 1020 30.12 849 25.07 -14.3 6.3 84 -16.5 2.4
22:20 1020 30.12 849 25.07 -14.2 6.4 83 -16.5 2.4
22:25 1020 30.12 849 25.07 -14.3 6.2 84 -16.4 2.5
22:30 1020 30.12 849 25.07 -14.4 6.1 84 -16.5 2.3
22:35 1020 30.12 849 25.07 -14.5 5.9 84 -16.6 2.1
22:40 1020 30.12 849 25.07 -14.5 5.9 84 -16.7 1.9
22:45 1020 30.12 849 25.07 -14.5 5.8 82 -16.9 1.5
22:50 1020 30.12 850 25.1 -14.7 5.6 82 -17.1 1.2
22:55 1020 30.12 850 25.1 -14.8 5.4 82 -17.2 1.1
23:00 1020 30.12 850 25.1 -14.9 5.3 82 -17.2 1
23:05 1020 30.12 850 25.1 -14.9 5.2 83 -17.2 1
23:10 1020 30.12 850 25.1 -15 5.1 82 -17.4 0.8
23:15 1021 30.15 850 25.1 -15 5 83 -17.4 0.8
23:20 1021 30.15 850 25.1 -15.1 4.7 84 -17.3 0.8
23:25 1021 30.15 850 25.1 -15.1 4.8 83 -17.3 0.8
23:30 1021 30.15 850 25.1 -15.2 4.7 84 -17.4 0.8
23:35 1021 30.15 850 25.1 -15.3 4.5 84 -17.4 0.6
23:40 1021 30.15 850 25.1 -15.5 4.1 85 -17.6 0.4
23:45 1021 30.15 850 25.1 -15.7 3.7 85 -17.7 0.2
23:50 1021 30.15 850 25.1 -15.8 3.5 85 -17.8 0
23:55 1021 30.15 850 25.1 -15.9 3.4 85 -17.8 -0.1
24:00 1021 30.15 850 25.1 -16 3.2 86 -17.8 -0.1